Armstrong, Alabama
Current Conditions -  °F | °C
As of 1:55 PM on Monday 22 Dec 2014 (Local Time) from KAUO Reporting Station
Overcast Overcast  
Wind Chill:   Ceiling: 200
Heat Index:   Visibility: 1.2mi
Dew Point:   Wind: 7mph
Humidity: 87%   Direction: 70°ENE
Pressure: 29.9"   Gusts: NA
Location:  32.2227°N, 85.6394°W
Report Text: KAUO 221955Z AUTO 07006KT 1 1/4SM OVC002 09/07 A2990 RMK AO1 LTG DSNT S
Loading
Personal Weather Stations






























Interactive Weather Map New forecast layout! Learn more

10-Day Weather Forecast

Advertisements
Track Severe Weather on mobile